Terminal Aerodrome Forecast
Issued by NWS Pueblo, CO

Home | Current Version | Previous Version | Text Only | Print | Product List | Glossary On
Versions: 1 2 3 4 5 6 7 8 9 10 11 12 13
000
FTUS45 KPUB 201120
TAFALS
TAF
KALS 201120Z 2012/2112 27007KT P6SM FEW100 SCT200
     FM210200 VRB04KT P6SM SKC
     FM210900 VRB04KT P6SM SCT010=

USA.gov is the U.S. government's official web portal to all federal, state and local government web resources and services.